Valpo, Indiana
Current Conditions -  °F | °C
As of 2:56 PM on Thursday 20 Nov 2014 (Local Time) from KVPZ Reporting Station
Clear Clear  
Wind Chill: 14°   Ceiling: Unl
Heat Index: 28°   Visibility: 10mi
Dew Point:   Wind: 23mph
Humidity: 33%   Direction: 280°W
Pressure: 30.08"   Gusts: 30mph
Location:  41.4608°N, 87.0555°W
Report Text: KVPZ 202056Z AUTO 28020G26KT 10SM CLR M02/M17 A3008 RMK AO2 PK WND 27026/2055 SLP196 T10221167 53006 TSNO
Loading
Personal Weather Stations






























Interactive Weather Map New forecast layout! Learn more

10-Day Weather Forecast

Advertisements
Track Severe Weather on mobile